.
WxDataArchive / Data Records for 2015-10-18
2015-10-17 October 2015 2015-10-19

Data Records for Sunday, 18 October 2015

Time	Temp	Chill	HIndex	Humid	Dewpt	 Wind 	HiWind	WindDir	Rain 	Barom
-----	----	-----	------	-----	-----	------	------	-------	-----	-----
00:00	31.2	31.2	31.2	82	26.4	0	0	---	0.00	30.410 
00:05	31.2	31.2	31.2	83	26.6	0	0	---	0.00	30.410 
00:10	31.0	31.0	31.0	83	26.5	0	0	---	0.00	30.410 
00:15	31.0	31.0	31.0	83	26.5	0	0	---	0.00	30.406 
00:20	30.9	30.9	30.9	84	26.6	0	0	---	0.00	30.406 
00:25	30.9	30.9	30.9	84	26.6	0	0	---	0.00	30.406 
00:30	30.7	30.7	30.7	84	26.4	0	0	---	0.00	30.402 
00:35	30.7	30.7	30.7	84	26.4	0	0	---	0.00	30.402 
00:40	30.6	30.6	30.6	84	26.4	0	0	---	0.00	30.402 
00:45	30.7	30.7	30.7	85	26.7	0	0	---	0.00	30.399 
00:50	30.7	30.7	30.7	85	26.7	0	0	---	0.00	30.399 
00:55	30.9	30.9	30.9	85	26.9	0	0	---	0.00	30.399 
01:00	30.9	30.9	30.9	85	26.9	0	0	---	0.00	30.396 
01:05	30.9	30.9	30.9	86	27.2	0	0	---	0.00	30.396 
01:10	30.9	30.9	30.9	86	27.2	0	0	---	0.00	30.396 
01:15	30.9	30.9	30.9	86	27.2	0	0	---	0.00	30.394 
01:20	30.9	30.9	30.9	86	27.2	0	0	---	0.00	30.394 
01:25	31.0	31.0	31.0	86	27.3	0	0	---	0.00	30.394 
01:30	31.0	31.0	31.0	86	27.3	0	0	---	0.00	30.391 
01:35	31.0	31.0	31.0	86	27.3	0	0	---	0.00	30.391 
01:40	31.0	31.0	31.0	86	27.3	0	0	---	0.00	30.391 
01:45	30.9	30.9	30.9	87	27.5	0	0	---	0.00	30.390 
01:50	30.7	30.7	30.7	87	27.3	0	0	---	0.00	30.390 
01:55	30.6	30.6	30.6	87	27.2	0	0	---	0.00	30.390 
02:00	30.6	30.6	30.6	87	27.2	0	0	---	0.00	30.391 
02:05	30.6	30.6	30.6	87	27.2	0	0	---	0.00	30.391 
02:10	30.6	30.6	30.6	88	27.5	0	0	---	0.00	30.391 
02:15	30.9	30.9	30.9	88	27.8	0	0	---	0.00	30.391 
02:20	31.0	31.0	31.0	88	27.9	0	0	---	0.00	30.391 
02:25	31.2	31.2	31.2	88	28.1	0	0	---	0.00	30.391 
02:30	31.3	31.3	31.3	88	28.2	0	0	---	0.00	30.386 
02:35	31.5	31.5	31.5	88	28.4	0	0	---	0.00	30.386 
02:40	31.8	31.8	31.8	88	28.7	0	0	---	0.00	30.386 
02:45	31.9	31.9	31.9	88	28.8	0	0	---	0.00	30.385 
02:50	31.9	31.9	31.9	88	28.8	0	0	---	0.00	30.385 
02:55	31.9	31.9	31.9	88	28.8	0	0	---	0.00	30.385 
03:00	31.9	31.9	31.9	88	28.8	0	0	---	0.00	30.388 
03:05	31.8	31.8	31.8	88	28.7	0	0	---	0.00	30.388 
03:10	31.6	31.6	31.6	88	28.5	0	0	---	0.00	30.388 
03:15	31.5	31.5	31.5	88	28.4	0	0	---	0.00	30.389 
03:20	31.5	31.5	31.5	88	28.4	0	0	---	0.00	30.389 
03:25	31.3	31.3	31.3	88	28.2	0	0	---	0.00	30.389 
03:30	31.2	31.2	31.2	88	28.1	0	0	---	0.00	30.390 
03:35	31.0	31.0	31.0	88	27.9	0	0	---	0.00	30.390 
03:40	30.9	30.9	30.9	88	27.8	0	0	---	0.00	30.390 
03:45	30.7	30.7	30.7	88	27.6	0	0	---	0.00	30.388 
03:50	30.6	30.6	30.6	88	27.5	0	0	---	0.00	30.388 
03:55	30.4	30.4	30.4	88	27.3	0	0	---	0.00	30.388 
04:00	30.3	30.3	30.3	88	27.2	0	0	---	0.00	30.391 
04:05	30.1	30.1	30.1	88	27.0	0	0	---	0.00	30.391 
04:10	30.0	30.0	30.0	88	26.9	0	0	---	0.00	30.391 
04:15	29.8	29.8	29.8	88	26.7	0	0	---	0.00	30.388 
04:20	29.7	29.7	29.7	88	26.6	0	0	---	0.00	30.388 
04:25	29.5	29.5	29.5	88	26.4	0	0	---	0.00	30.388 
04:30	29.5	29.5	29.5	88	26.4	0	0	---	0.00	30.387 
04:35	29.4	29.4	29.4	89	26.6	0	0	---	0.00	30.387 
04:40	29.3	29.3	29.3	89	26.5	0	0	---	0.00	30.387 
04:45	29.1	29.1	29.1	89	26.3	0	2	338	0.00	30.390 
04:50	29.1	29.1	29.1	89	26.3	0	3	315	0.00	30.390 
04:55	29.1	29.1	29.1	89	26.3	0	1	315	0.00	30.390 
05:00	29.3	29.3	29.3	89	26.5	0	1	315	0.00	30.392 
05:05	29.3	29.3	29.3	89	26.5	0	0	---	0.00	30.392 
05:10	29.3	29.3	29.3	89	26.5	0	0	---	0.00	30.392 
05:15	29.1	29.1	29.1	89	26.3	0	0	---	0.00	30.390 
05:20	29.1	29.1	29.1	89	26.3	0	0	---	0.00	30.390 
05:25	29.0	29.0	29.0	89	26.2	0	0	---	0.00	30.390 
05:30	29.0	29.0	29.0	89	26.2	0	0	---	0.00	30.388 
05:35	29.0	29.0	29.0	90	26.4	0	0	---	0.00	30.388 
05:40	29.0	29.0	29.0	90	26.4	0	0	---	0.00	30.388 
05:45	28.8	28.8	28.8	90	26.2	0	0	---	0.00	30.390 
05:50	28.8	28.8	28.8	90	26.2	0	0	---	0.00	30.390 
05:55	29.0	29.0	29.0	90	26.4	0	0	---	0.00	30.390 
06:00	29.1	29.1	29.1	90	26.5	0	0	---	0.00	30.392 
06:05	29.3	29.3	29.3	90	26.7	0	0	---	0.00	30.392 
06:10	29.5	29.5	29.5	90	26.9	0	0	---	0.00	30.392 
06:15	29.8	29.8	29.8	90	27.2	0	0	---	0.00	30.397 
06:20	30.0	30.0	30.0	90	27.4	0	0	---	0.00	30.397 
06:25	30.1	30.1	30.1	90	27.5	0	0	---	0.00	30.397 
06:30	30.3	30.3	30.3	90	27.7	0	0	---	0.00	30.400 
06:35	30.4	30.4	30.4	90	27.8	0	0	---	0.00	30.400 
06:40	30.6	30.6	30.6	89	27.8	0	0	---	0.00	30.400 
06:45	30.7	30.7	30.7	89	27.8	0	0	---	0.00	30.401 
06:50	31.0	31.0	31.0	89	28.1	0	0	---	0.00	30.401 
06:55	31.2	31.2	31.2	88	28.1	0	0	---	0.00	30.401 
07:00	31.2	31.2	31.2	88	28.1	0	0	---	0.00	30.407 
07:05	31.3	31.3	31.3	87	27.9	0	0	---	0.00	30.407 
07:10	31.5	31.5	31.5	87	28.1	0	0	---	0.00	30.407 
07:15	31.5	31.5	31.5	86	27.8	0	0	---	0.00	30.410 
07:20	31.5	31.5	31.5	85	27.5	0	1	315	0.00	30.410 
07:25	31.5	31.5	31.5	85	27.5	0	0	---	0.00	30.410 
07:30	31.5	31.5	31.5	84	27.2	0	0	---	0.00	30.415 
07:35	31.3	31.3	31.3	84	27.0	0	0	---	0.00	30.415 
07:40	31.3	31.3	31.3	84	27.0	0	0	---	0.00	30.415 
07:45	31.3	31.3	31.3	84	27.0	0	1	315	0.00	30.423 
07:50	31.2	31.2	31.2	83	26.6	0	0	---	0.00	30.423 
07:55	31.2	31.2	31.2	83	26.6	0	0	---	0.00	30.423 
08:00	31.2	31.2	31.2	83	26.6	0	0	---	0.00	30.427 
08:05	31.2	31.2	31.2	83	26.6	0	0	---	0.00	30.427 
08:10	31.2	31.2	31.2	83	26.6	0	0	---	0.00	30.427 
08:15	31.2	31.2	31.2	83	26.6	0	1	315	0.00	30.437 
08:20	31.2	31.2	31.2	83	26.6	0	0	---	0.00	30.437 
08:25	31.2	31.2	31.2	83	26.6	0	0	---	0.00	30.437 
08:30	31.3	31.3	31.3	83	26.7	0	0	---	0.00	30.445 
08:35	31.5	31.5	31.5	82	26.7	0	0	---	0.00	30.445 
08:40	31.6	31.6	31.6	82	26.7	0	1	315	0.00	30.445 
08:45	31.9	31.9	31.9	82	27.0	0	1	315	0.00	30.449 
08:50	32.4	32.4	32.4	81	27.2	0	1	315	0.00	30.449 
08:55	32.7	32.7	32.7	81	27.5	0	1	315	0.00	30.449 
09:00	33.1	33.1	33.1	80	27.6	0	1	315	0.00	30.454 
09:05	33.4	33.4	33.4	79	27.6	0	1	315	0.00	30.454 
09:10	33.8	33.8	33.8	79	28.0	0	1	315	0.00	30.454 
09:15	34.3	34.3	34.3	78	28.2	0	2	315	0.00	30.464 
09:20	34.7	34.7	34.7	77	28.2	0	1	315	0.00	30.464 
09:25	35.3	35.3	35.3	77	28.8	0	1	315	0.00	30.464 
09:30	35.8	35.8	35.8	76	29.0	0	2	315	0.00	30.471 
09:35	36.2	36.2	36.2	75	29.1	0	2	315	0.00	30.471 
09:40	36.8	36.8	36.8	74	29.3	0	1	315	0.00	30.471 
09:45	37.5	37.5	37.5	73	29.6	0	2	315	0.00	30.474 
09:50	38.0	38.0	38.0	72	29.8	0	3	315	0.00	30.474 
09:55	38.8	38.8	38.8	71	30.2	0	2	315	0.00	30.474 
10:00	39.3	39.3	39.3	69	30.0	1	3	315	0.00	30.473 
10:05	39.9	39.9	39.9	68	30.2	1	3	315	0.00	30.473 
10:10	40.6	40.6	40.6	67	30.5	1	4	315	0.00	30.473 
10:15	41.5	41.5	41.5	66	31.0	0	2	315	0.00	30.474 
10:20	42.1	42.1	42.1	64	30.8	1	3	315	0.00	30.474 
10:25	42.6	42.6	42.6	62	30.5	0	2	315	0.00	30.474 
10:30	43.3	43.3	43.3	62	31.2	0	1	315	0.00	30.475 
10:35	43.9	43.9	43.9	60	30.9	1	3	315	0.00	30.475 
10:40	44.5	44.5	44.5	58	30.7	0	2	315	0.00	30.475 
10:45	45.1	45.1	45.1	59	31.6	0	2	315	0.00	30.475 
10:50	45.8	45.8	45.8	57	31.4	0	2	315	0.00	30.475 
10:55	46.2	46.2	46.2	56	31.4	0	3	315	0.00	30.475 
11:00	47.0	47.0	47.0	53	30.8	0	2	315	0.00	30.471 
11:05	47.4	47.4	47.4	52	30.7	0	1	315	0.00	30.471 
11:10	47.9	47.9	47.9	50	30.2	1	2	315	0.00	30.471 
11:15	48.3	48.3	48.3	52	31.5	0	2	315	0.00	30.472 
11:20	48.6	48.6	48.6	47	29.3	1	3	315	0.00	30.472 
11:25	49.2	49.2	49.2	48	30.4	0	1	315	0.00	30.472 
11:30	49.6	49.6	49.6	45	29.1	1	5	315	0.00	30.471 
11:35	49.9	49.9	49.9	45	29.4	1	4	292	0.00	30.471 
11:40	49.8	49.8	49.8	45	29.3	1	4	270	0.00	30.471 
11:45	50.4	50.4	50.4	44	29.3	0	2	270	0.00	30.469 
11:50	50.5	50.5	50.5	43	28.8	1	3	270	0.00	30.469 
11:55	50.7	50.7	50.7	42	28.5	1	3	270	0.00	30.469 
12:00	50.8	50.8	50.8	43	29.1	1	7	270	0.00	30.466 
12:05	51.0	51.0	51.0	43	29.3	1	7	338	0.00	30.466 
12:10	51.1	51.1	51.1	43	29.4	2	4	338	0.00	30.466 
12:15	51.1	51.1	51.1	43	29.4	1	4	292	0.00	30.464 
12:20	51.1	51.1	51.1	44	30.0	1	3	292	0.00	30.464 
12:25	51.4	51.4	51.4	44	30.2	2	4	292	0.00	30.464 
12:30	51.9	51.9	51.9	43	30.1	1	4	292	0.00	30.463 
12:35	52.0	52.0	52.0	43	30.2	2	5	292	0.00	30.463 
12:40	52.0	52.0	52.0	43	30.2	1	6	292	0.00	30.463 
12:45	52.2	52.2	52.2	43	30.4	2	4	270	0.00	30.464 
12:50	52.3	52.3	52.3	42	29.9	1	3	292	0.00	30.464 
12:55	52.8	52.8	52.8	42	30.3	1	4	292	0.00	30.464 
13:00	52.5	52.5	52.5	41	29.5	2	6	315	0.00	30.455 
13:05	52.8	52.8	52.8	42	30.3	1	2	315	0.00	30.455 
13:10	52.6	52.6	52.6	42	30.2	1	3	315	0.00	30.455 
13:15	52.5	52.5	52.5	41	29.5	2	4	315	0.00	30.450 
13:20	52.2	52.2	52.2	41	29.2	3	6	338	0.00	30.450 
13:25	52.6	52.6	52.6	42	30.2	1	5	292	0.00	30.450 
13:30	53.1	53.1	53.1	41	30.0	2	5	315	0.00	30.446 
13:35	53.6	53.6	53.6	39	29.3	3	9	338	0.00	30.446 
13:40	53.3	53.3	53.3	39	29.0	2	5	270	0.00	30.446 
13:45	53.3	53.3	53.3	39	29.0	1	4	315	0.00	30.443 
13:50	53.6	53.6	53.6	39	29.3	2	4	292	0.00	30.443 
13:55	53.8	53.8	53.8	38	28.8	1	4	315	0.00	30.443 
14:00	53.3	53.3	53.3	39	29.0	2	6	292	0.00	30.436 
14:05	53.1	53.1	53.1	40	29.4	1	5	292	0.00	30.436 
14:10	53.1	53.1	53.1	41	30.0	1	3	292	0.00	30.436 
14:15	53.9	53.9	53.9	40	30.1	1	3	292	0.00	30.433 
14:20	53.9	53.9	53.9	38	28.9	2	5	292	0.00	30.433 
14:25	53.9	53.9	53.9	39	29.5	1	7	338	0.00	30.433 
14:30	54.2	54.2	54.2	38	29.2	1	4	338	0.00	30.428 
14:35	54.4	54.4	54.4	38	29.3	0	3	338	0.00	30.428 
14:40	54.4	54.4	54.4	38	29.3	1	3	248	0.00	30.428 
14:45	54.5	54.5	54.5	35	27.4	2	5	248	0.00	30.426 
14:50	54.7	54.7	54.7	36	28.3	2	4	292	0.00	30.426 
14:55	54.4	54.4	54.4	35	27.3	1	5	270	0.00	30.426 
15:00	54.2	54.2	54.2	36	27.8	1	6	270	0.00	30.418 
15:05	54.4	54.4	54.4	35	27.3	1	5	292	0.00	30.418 
15:10	54.5	54.5	54.5	36	28.1	1	5	338	0.00	30.418 
15:15	55.0	55.0	55.0	35	27.9	1	4	292	0.00	30.415 
15:20	55.1	55.1	55.1	35	27.9	1	3	315	0.00	30.415 
15:25	54.8	54.8	54.8	35	27.7	2	6	315	0.00	30.415 
15:30	54.8	54.8	54.8	34	27.0	2	6	292	0.00	30.414 
15:35	54.8	54.8	54.8	34	27.0	2	4	315	0.00	30.414 
15:40	55.0	55.0	55.0	33	26.4	2	6	292	0.00	30.414 
15:45	55.3	55.3	55.3	34	27.4	0	3	292	0.00	30.406 
15:50	55.4	55.4	55.4	33	26.8	1	3	292	0.00	30.406 
15:55	55.4	55.4	55.4	33	26.8	1	4	292	0.00	30.406 
16:00	55.3	55.3	55.3	35	28.1	1	4	315	0.00	30.403 
16:05	55.1	55.1	55.1	35	27.9	2	5	292	0.00	30.403 
16:10	55.1	55.1	55.1	34	27.2	1	4	315	0.00	30.403 
16:15	55.1	55.1	55.1	34	27.2	1	4	338	0.00	30.399 
16:20	55.3	55.3	55.3	33	26.7	2	5	292	0.00	30.399 
16:25	55.4	55.4	55.4	33	26.8	1	5	292	0.00	30.399 
16:30	55.4	55.4	55.4	32	26.0	1	5	292	0.00	30.399 
16:35	55.1	55.1	55.1	33	26.5	0	5	315	0.00	30.399 
16:40	55.1	55.1	55.1	31	25.0	1	3	315	0.00	30.399 
16:45	55.3	55.3	55.3	32	26.0	2	6	292	0.00	30.394 
16:50	55.3	55.3	55.3	32	26.0	1	4	315	0.00	30.394 
16:55	55.1	55.1	55.1	33	26.5	1	4	270	0.00	30.394 
17:00	55.3	55.3	55.3	34	27.4	0	2	270	0.00	30.393 
17:05	55.3	55.3	55.3	32	26.0	1	3	292	0.00	30.393 
17:10	55.3	55.3	55.3	33	26.7	0	4	292	0.00	30.393 
17:15	55.4	55.4	55.4	32	26.0	1	3	292	0.00	30.388 
17:20	55.3	55.3	55.3	33	26.7	0	2	292	0.00	30.388 
17:25	55.3	55.3	55.3	34	27.4	0	2	292	0.00	30.388 
17:30	55.1	55.1	55.1	33	26.5	0	2	292	0.00	30.384 
17:35	55.3	55.3	55.3	33	26.7	0	2	292	0.00	30.384 
17:40	55.3	55.3	55.3	34	27.4	0	2	292	0.00	30.384 
17:45	55.3	55.3	55.3	34	27.4	0	1	292	0.00	30.387 
17:50	55.1	55.1	55.1	33	26.5	0	1	292	0.00	30.387 
17:55	55.0	55.0	55.0	33	26.4	0	1	292	0.00	30.387 
18:00	55.0	55.0	55.0	33	26.4	0	2	292	0.00	30.386 
18:05	54.8	54.8	54.8	34	27.0	0	1	292	0.00	30.386 
18:10	54.7	54.7	54.7	34	26.9	0	1	292	0.00	30.386 
18:15	54.5	54.5	54.5	34	26.7	0	1	292	0.00	30.382 
18:20	54.4	54.4	54.4	34	26.6	0	2	292	0.00	30.382 
18:25	54.2	54.2	54.2	34	26.4	0	1	292	0.00	30.382 
18:30	54.1	54.1	54.1	35	27.1	0	0	---	0.00	30.385 
18:35	53.8	53.8	53.8	37	28.1	0	0	---	0.00	30.385 
18:40	53.5	53.5	53.5	39	29.2	0	0	---	0.00	30.385 
18:45	52.9	52.9	52.9	39	28.6	0	0	---	0.00	30.385 
18:50	52.5	52.5	52.5	39	28.3	0	0	---	0.00	30.385 
18:55	51.9	51.9	51.9	41	28.9	0	0	---	0.00	30.385 
19:00	51.3	51.3	51.3	41	28.4	0	0	---	0.00	30.385 
19:05	50.8	50.8	50.8	42	28.5	0	0	---	0.00	30.385 
19:10	50.4	50.4	50.4	43	28.8	0	0	---	0.00	30.385 
19:15	49.8	49.8	49.8	45	29.3	0	0	---	0.00	30.388 
19:20	49.2	49.2	49.2	46	29.3	0	0	---	0.00	30.388 
19:25	48.5	48.5	48.5	48	29.7	0	0	---	0.00	30.388 
19:30	48.0	48.0	48.0	50	30.3	0	0	---	0.00	30.389 
19:35	47.4	47.4	47.4	50	29.7	0	0	---	0.00	30.389 
19:40	46.8	46.8	46.8	52	30.1	0	0	---	0.00	30.389 
19:45	46.2	46.2	46.2	53	30.0	0	0	---	0.00	30.391 
19:50	45.8	45.8	45.8	54	30.1	0	0	---	0.00	30.391 
19:55	45.4	45.4	45.4	55	30.2	0	0	---	0.00	30.391 
20:00	44.9	44.9	44.9	57	30.6	0	0	---	0.00	30.393 
20:05	44.6	44.6	44.6	57	30.3	0	0	---	0.00	30.393 
20:10	44.2	44.2	44.2	59	30.8	0	0	---	0.00	30.393 
20:15	43.9	43.9	43.9	60	30.9	0	0	---	0.00	30.392 
20:20	43.5	43.5	43.5	60	30.5	0	0	---	0.00	30.392 
20:25	43.2	43.2	43.2	61	30.7	0	0	---	0.00	30.392 
20:30	42.8	42.8	42.8	62	30.7	0	0	---	0.00	30.391 
20:35	42.5	42.5	42.5	62	30.4	0	0	---	0.00	30.391 
20:40	42.2	42.2	42.2	63	30.5	0	0	---	0.00	30.391 
20:45	41.9	41.9	41.9	65	31.0	0	0	---	0.00	30.393 
20:50	41.5	41.5	41.5	66	31.0	0	0	---	0.00	30.393 
20:55	41.2	41.2	41.2	66	30.7	0	0	---	0.00	30.393 
21:00	40.9	40.9	40.9	67	30.8	0	0	---	0.00	30.393 
21:05	40.6	40.6	40.6	67	30.5	0	0	---	0.00	30.393 
21:10	40.5	40.5	40.5	68	30.8	0	0	---	0.00	30.393 
21:15	40.3	40.3	40.3	69	31.0	0	0	---	0.00	30.390 
21:20	40.1	40.1	40.1	69	30.8	0	0	---	0.00	30.390 
21:25	39.9	39.9	39.9	70	30.9	0	0	---	0.00	30.390 
21:30	39.6	39.6	39.6	71	31.0	0	0	---	0.00	30.390 
21:35	39.5	39.5	39.5	72	31.2	0	0	---	0.00	30.390 
21:40	39.2	39.2	39.2	72	30.9	0	0	---	0.00	30.390 
21:45	39.1	39.1	39.1	73	31.2	0	0	---	0.00	30.389 
21:50	38.9	38.9	38.9	73	31.0	0	0	---	0.00	30.389 
21:55	38.8	38.8	38.8	74	31.2	0	0	---	0.00	30.389 
22:00	38.6	38.6	38.6	74	31.0	0	0	---	0.00	30.389 
22:05	38.3	38.3	38.3	75	31.1	0	0	---	0.00	30.389 
22:10	38.2	38.2	38.2	75	31.0	0	0	---	0.00	30.389 
22:15	38.0	38.0	38.0	76	31.1	0	0	---	0.00	30.385 
22:20	37.9	37.9	37.9	76	31.0	0	0	---	0.00	30.385 
22:25	37.6	37.6	37.6	77	31.1	0	1	292	0.00	30.385 
22:30	37.5	37.5	37.5	77	31.0	0	0	---	0.00	30.386 
22:35	37.3	37.3	37.3	77	30.8	0	0	---	0.00	30.386 
22:40	37.2	37.2	37.2	78	31.0	0	0	---	0.00	30.386 
22:45	37.0	37.0	37.0	78	30.8	0	0	---	0.00	30.384 
22:50	36.9	36.9	36.9	79	31.0	0	0	---	0.00	30.384 
22:55	36.8	36.8	36.8	80	31.2	0	0	---	0.00	30.384 
23:00	36.6	36.6	36.6	80	31.0	0	0	---	0.00	30.382 
23:05	36.5	36.5	36.5	80	30.9	0	0	---	0.00	30.382 
23:10	36.5	36.5	36.5	81	31.2	0	0	---	0.00	30.382 
23:15	36.3	36.3	36.3	81	31.0	0	0	---	0.00	30.380 
23:20	36.2	36.2	36.2	81	30.9	0	0	---	0.00	30.380 
23:25	36.0	36.0	36.0	82	31.0	0	0	---	0.00	30.380 
23:30	35.9	35.9	35.9	82	31.0	0	0	---	0.00	30.380 
23:35	35.8	35.8	35.8	83	31.2	0	0	---	0.00	30.380 
23:40	35.8	35.8	35.8	83	31.2	0	0	---	0.00	30.380 
23:45	35.6	35.6	35.6	83	31.0	0	0	---	0.00	30.373 
23:50	35.5	35.5	35.5	84	31.2	0	0	---	0.00	30.373 
23:55	35.3	35.3	35.3	84	31.0	0	0	---	0.00	30.373 

CoCoRaHS
IN-AL-39
A2 Web Hosting
Creative Commons License
GoDaddy
search engine by freefind advanced

loaded 2018-11-17 18:13:31 • last modified 2010-11-18 10:43:29
Privacy PolicyDisclaimer
• wx.awcolley.com is powered by PmWiki v.2002016 •
• all content (unless otherwise noted) © 2018 A W Colley